createdAt,value
2022-08-10T00:01:51.450Z,19.40
2022-08-10T00:04:21.549Z,19.40
2022-08-10T00:06:52.524Z,19.40
2022-08-10T00:09:20.913Z,19.40
2022-08-10T00:11:48.973Z,19.40
2022-08-10T00:14:17.133Z,19.40
2022-08-10T00:16:45.475Z,19.30
2022-08-10T00:19:16.434Z,19.30
2022-08-10T00:21:45.001Z,19.30
2022-08-10T00:24:14.487Z,19.30
2022-08-10T00:27:52.635Z,19.30
2022-08-10T00:29:30.989Z,19.20
2022-08-10T00:31:59.757Z,19.20
2022-08-10T00:34:28.117Z,19.30
2022-08-10T00:36:57.259Z,19.20
2022-08-10T00:39:28.717Z,19.20
2022-08-10T00:42:01.710Z,19.20
2022-08-10T00:44:36.392Z,19.20
2022-08-10T00:47:04.696Z,19.20
2022-08-10T00:49:32.950Z,19.10
2022-08-10T00:52:01.465Z,19.10
2022-08-10T00:54:31.363Z,19.00
2022-08-10T00:57:16.326Z,19.00
2022-08-10T00:59:58.874Z,19.00
2022-08-10T01:02:30.196Z,18.90
2022-08-10T01:05:01.874Z,18.90
2022-08-10T01:08:03.630Z,18.80
2022-08-10T01:10:47.283Z,18.80
2022-08-10T01:13:23.360Z,18.70
2022-08-10T01:15:57.847Z,18.70
2022-08-10T01:18:41.640Z,18.70
2022-08-10T01:21:35.131Z,18.70
2022-08-10T01:24:24.941Z,18.70
2022-08-10T01:27:16.686Z,18.70
2022-08-10T01:29:57.837Z,18.70
2022-08-10T01:32:33.838Z,18.60
2022-08-10T01:35:11.709Z,18.60
2022-08-10T01:37:52.416Z,18.50
2022-08-10T01:40:25.989Z,18.50
2022-08-10T01:42:59.675Z,18.40
2022-08-10T01:45:44.741Z,18.40
2022-08-10T01:48:31.488Z,18.30
2022-08-10T01:51:10.276Z,18.40
2022-08-10T01:53:42.762Z,18.30
2022-08-10T01:56:14.122Z,18.30
2022-08-10T01:58:45.788Z,18.20
2022-08-10T02:01:18.591Z,18.20
2022-08-10T02:04:04.045Z,18.20
2022-08-10T02:06:38.023Z,18.10
2022-08-10T02:09:08.616Z,18.10
2022-08-10T02:12:06.965Z,18.10
2022-08-10T02:14:32.940Z,18.10
2022-08-10T02:17:07.279Z,18.00
2022-08-10T02:19:39.112Z,18.00
2022-08-10T02:22:35.221Z,18.00
2022-08-10T02:24:58.607Z,18.00
2022-08-10T02:27:29.757Z,17.90
2022-08-10T02:29:59.990Z,17.90
2022-08-10T02:32:40.667Z,17.80
2022-08-10T02:35:22.068Z,17.70
2022-08-10T02:37:55.917Z,17.70
2022-08-10T02:45:14.589Z,17.70
2022-08-10T02:45:27.813Z,17.70
2022-08-10T02:46:18.273Z,17.60
2022-08-10T02:48:59.288Z,17.60
2022-08-10T02:52:06.923Z,17.60
2022-08-10T02:54:28.036Z,17.60
2022-08-10T02:56:59.409Z,17.50
2022-08-10T02:59:39.840Z,17.60
2022-08-10T03:02:13.242Z,17.50
2022-08-10T03:04:55.792Z,17.50
2022-08-10T03:07:43.341Z,17.50
2022-08-10T03:10:17.220Z,17.50
2022-08-10T03:12:48.570Z,17.40
2022-08-10T03:15:20.035Z,17.50
2022-08-10T03:17:57.056Z,17.40
2022-08-10T03:20:38.245Z,17.30
2022-08-10T03:23:12.929Z,17.30
2022-08-10T03:25:53.286Z,17.30
2022-08-10T03:28:23.373Z,17.30
2022-08-10T03:30:52.141Z,17.20
2022-08-10T03:33:22.349Z,17.20
2022-08-10T03:36:43.212Z,17.10
2022-08-10T03:38:46.012Z,17.10
2022-08-10T03:41:16.642Z,17.10
2022-08-10T03:43:47.769Z,17.20
2022-08-10T03:46:19.321Z,17.10
2022-08-10T03:48:50.954Z,17.10
2022-08-10T03:51:21.780Z,17.10
2022-08-10T03:54:03.473Z,17.00
2022-08-10T03:56:36.032Z,17.00
2022-08-10T03:59:05.051Z,16.90
2022-08-10T04:02:46.396Z,17.00
2022-08-10T04:04:25.007Z,16.90
2022-08-10T04:06:57.078Z,16.90
2022-08-10T04:09:42.813Z,16.80
2022-08-10T04:12:16.022Z,16.80
2022-08-10T04:14:51.573Z,16.80
2022-08-10T04:17:57.136Z,16.80
2022-08-10T04:20:19.241Z,16.80
2022-08-10T04:22:51.791Z,16.80
2022-08-10T04:25:20.834Z,16.80
2022-08-10T04:27:49.496Z,16.80
2022-08-10T04:30:17.999Z,16.80
2022-08-10T04:32:49.774Z,16.80
2022-08-10T04:35:21.228Z,16.80
2022-08-10T04:37:53.270Z,16.90
2022-08-10T04:40:28.587Z,16.90
2022-08-10T04:43:10.899Z,16.90
2022-08-10T04:45:50.524Z,17.00
2022-08-10T04:48:39.991Z,17.00
2022-08-10T04:51:17.258Z,17.10
2022-08-10T04:54:03.069Z,17.10
2022-08-10T04:56:36.718Z,17.20
2022-08-10T04:59:06.168Z,17.20
2022-08-10T05:02:12.283Z,17.30
2022-08-10T05:04:37.405Z,17.40
2022-08-10T05:07:08.941Z,17.50
2022-08-10T05:10:01.597Z,17.60
2022-08-10T05:12:27.693Z,18.40
2022-08-10T05:14:56.253Z,19.60
2022-08-10T05:17:24.929Z,20.50
2022-08-10T05:20:04.954Z,21.20
2022-08-10T05:22:36.314Z,21.50
2022-08-10T05:25:08.090Z,21.70
2022-08-10T05:27:36.646Z,21.80
2022-08-10T05:30:06.984Z,22.10
2022-08-10T05:32:57.275Z,22.40
2022-08-10T05:35:24.880Z,22.80
2022-08-10T05:38:13.196Z,22.40
2022-08-10T05:40:47.496Z,21.90
2022-08-10T05:43:18.622Z,21.20
2022-08-10T05:46:19.635Z,20.60
2022-08-10T05:48:54.828Z,20.30
2022-08-10T05:51:24.284Z,20.00
2022-08-10T05:54:01.748Z,20.00
2022-08-10T05:56:55.512Z,19.80
2022-08-10T06:00:10.711Z,20.00
2022-08-10T06:02:33.865Z,20.70
2022-08-10T06:05:08.394Z,21.60
2022-08-10T06:07:41.914Z,21.80
2022-08-10T06:10:13.603Z,21.80
2022-08-10T06:12:54.252Z,21.50
2022-08-10T06:15:50.529Z,21.40
2022-08-10T06:18:15.394Z,21.10
2022-08-10T06:20:44.267Z,21.10
2022-08-10T06:23:13.592Z,21.20
2022-08-10T06:26:10.722Z,21.10
2022-08-10T06:28:34.553Z,21.10
2022-08-10T06:31:04.015Z,21.10
2022-08-10T06:33:35.498Z,21.10
2022-08-10T06:36:07.093Z,21.10
2022-08-10T06:38:39.187Z,21.20
2022-08-10T06:41:18.005Z,21.20
2022-08-10T06:43:55.254Z,21.30
2022-08-10T06:46:24.975Z,21.40
2022-08-10T06:48:57.502Z,21.50
2022-08-10T06:51:28.571Z,21.60
2022-08-10T06:54:00.853Z,21.70
2022-08-10T06:56:38.209Z,21.80
2022-08-10T06:59:14.565Z,21.80
2022-08-10T07:01:54.334Z,21.80
2022-08-10T07:04:32.282Z,21.90
2022-08-10T07:07:03.879Z,22.00
2022-08-10T07:09:34.313Z,22.10
2022-08-10T07:12:08.384Z,22.20
2022-08-10T07:14:42.405Z,22.40
2022-08-10T07:17:15.339Z,22.60
2022-08-10T07:19:50.081Z,22.70
2022-08-10T07:23:22.717Z,22.80
2022-08-10T07:25:11.899Z,22.90
2022-08-10T07:27:59.932Z,23.00
2022-08-10T07:30:32.240Z,23.10
2022-08-10T07:33:02.955Z,23.20
2022-08-10T07:35:42.577Z,23.20
2022-08-10T07:38:19.640Z,23.30
2022-08-10T07:40:50.248Z,23.30
2022-08-10T07:43:21.628Z,23.40
2022-08-10T07:45:51.844Z,23.50
2022-08-10T07:48:26.524Z,23.70
2022-08-10T07:50:59.327Z,23.70
2022-08-10T07:53:31.665Z,23.90
2022-08-10T07:56:16.519Z,23.90
2022-08-10T07:58:53.158Z,24.00
2022-08-10T08:01:29.192Z,24.00
2022-08-10T08:04:05.459Z,24.20
2022-08-10T08:06:41.068Z,24.20
2022-08-10T08:09:09.475Z,24.10
2022-08-10T08:11:39.029Z,24.20
2022-08-10T08:14:09.339Z,24.20
2022-08-10T08:16:42.684Z,24.30
2022-08-10T08:19:28.509Z,24.40
2022-08-10T08:24:30.565Z,24.40
2022-08-10T08:24:52.186Z,24.40
2022-08-10T08:27:21.660Z,24.40
2022-08-10T08:29:52.318Z,24.50
2022-08-10T08:32:24.214Z,24.60
2022-08-10T08:34:57.400Z,24.70
2022-08-10T08:38:33.239Z,24.90
2022-08-10T08:40:23.399Z,24.80
2022-08-10T08:43:09.766Z,24.80
2022-08-10T08:46:01.149Z,24.90
2022-08-10T08:50:08.647Z,25.20
2022-08-10T08:52:20.276Z,25.30
2022-08-10T08:55:00.603Z,25.40
2022-08-10T08:57:50.255Z,25.60
2022-08-10T09:00:25.312Z,25.70
2022-08-10T09:03:11.529Z,25.70
2022-08-10T09:06:00.214Z,25.80
2022-08-10T09:08:44.793Z,25.80
2022-08-10T09:11:29.378Z,26.20
2022-08-10T09:14:07.017Z,26.50
2022-08-10T09:16:44.103Z,27.20
2022-08-10T09:19:34.965Z,28.00
2022-08-10T09:22:18.138Z,29.00
2022-08-10T09:24:52.936Z,29.80
2022-08-10T09:36:22.613Z,32.10
2022-08-10T09:36:49.429Z,31.70
2022-08-10T09:40:48.498Z,31.70
2022-08-10T09:42:21.450Z,32.40
2022-08-10T09:44:58.969Z,33.20
2022-08-10T09:48:01.255Z,33.70
2022-08-10T09:51:16.380Z,33.80
2022-08-10T09:53:40.067Z,33.20
2022-08-10T09:56:28.690Z,33.20
2022-08-10T09:59:27.162Z,33.50
2022-08-10T10:02:15.909Z,33.30
2022-08-10T10:04:52.920Z,33.80
2022-08-10T10:07:27.793Z,33.30
2022-08-10T10:10:03.369Z,33.30
2022-08-10T10:12:55.947Z,33.40
2022-08-10T10:15:34.599Z,33.60
2022-08-10T10:18:16.544Z,33.80
2022-08-10T10:20:56.512Z,33.40
2022-08-10T10:23:36.190Z,33.40
2022-08-10T10:26:22.035Z,33.30
2022-08-10T10:31:57.719Z,33.40
2022-08-10T10:34:34.382Z,33.40
2022-08-10T10:37:06.860Z,33.30
2022-08-10T10:39:38.018Z,33.50
2022-08-10T10:42:42.291Z,33.80
2022-08-10T10:45:17.040Z,33.60
2022-08-10T10:48:00.551Z,34.10
2022-08-10T10:50:38.392Z,34.10
2022-08-10T10:53:14.204Z,34.70
2022-08-10T10:56:14.822Z,34.30
2022-08-10T10:58:49.408Z,34.00
2022-08-10T11:01:33.699Z,33.50
2022-08-10T11:04:16.968Z,33.60
2022-08-10T11:06:58.106Z,34.30
2022-08-10T11:10:05.432Z,35.70
2022-08-10T11:12:30.464Z,35.20
2022-08-10T11:15:05.659Z,34.90
2022-08-10T11:17:41.549Z,34.50
2022-08-10T11:20:16.831Z,33.80
2022-08-10T11:22:52.292Z,34.30
2022-08-10T11:25:25.286Z,34.90
2022-08-10T11:28:01.757Z,34.70
2022-08-10T11:30:35.130Z,34.40
2022-08-10T11:33:15.395Z,35.20
2022-08-10T11:36:04.868Z,35.00
2022-08-10T11:39:04.058Z,34.70
2022-08-10T11:42:11.555Z,34.40
2022-08-10T11:44:33.331Z,34.30
2022-08-10T11:47:10.905Z,35.10
2022-08-10T11:49:47.586Z,34.90
2022-08-10T11:52:24.071Z,34.90
2022-08-10T11:54:55.283Z,34.50
2022-08-10T11:57:54.094Z,35.00
2022-08-10T12:00:20.620Z,34.50
2022-08-10T12:02:53.429Z,35.00
2022-08-10T12:05:52.639Z,34.40
2022-08-10T12:10:07.220Z,34.40
2022-08-10T12:11:08.622Z,34.30
2022-08-10T12:13:58.516Z,34.40
2022-08-10T12:16:32.766Z,34.90
2022-08-10T12:19:06.746Z,34.50
2022-08-10T12:21:41.756Z,35.00
2022-08-10T12:24:16.836Z,35.00
2022-08-10T12:26:54.765Z,34.20
2022-08-10T12:29:28.812Z,33.80
2022-08-10T12:32:44.734Z,34.00
2022-08-10T12:35:22.005Z,34.50
2022-08-10T12:38:08.488Z,35.20
2022-08-10T12:40:43.323Z,35.00
2022-08-10T12:44:05.081Z,35.30
2022-08-10T12:46:12.380Z,35.60
2022-08-10T12:48:49.011Z,35.30
2022-08-10T12:51:22.614Z,35.50
2022-08-10T12:54:02.999Z,35.10
2022-08-10T12:56:40.131Z,34.70
2022-08-10T12:59:12.475Z,34.70
2022-08-10T13:02:06.642Z,34.70
2022-08-10T13:04:32.462Z,34.90
2022-08-10T13:07:02.134Z,34.60
2022-08-10T13:09:32.819Z,34.30
2022-08-10T13:12:36.152Z,34.70
2022-08-10T13:14:56.132Z,34.40
2022-08-10T13:17:38.588Z,34.10
2022-08-10T13:20:23.420Z,33.30
2022-08-10T13:22:55.543Z,33.10
2022-08-10T13:25:31.807Z,32.60
2022-08-10T13:28:37.854Z,32.70
2022-08-10T13:30:52.198Z,32.70
2022-08-10T13:34:36.580Z,32.70
2022-08-10T13:36:16.104Z,32.50
2022-08-10T13:38:48.740Z,32.40
2022-08-10T13:41:19.401Z,32.20
2022-08-10T13:43:57.219Z,32.10
2022-08-10T13:46:25.583Z,32.20
2022-08-10T13:48:55.275Z,32.40
2022-08-10T13:51:57.649Z,32.30
2022-08-10T13:54:19.007Z,32.00
2022-08-10T13:56:51.546Z,32.20
2022-08-10T13:59:21.355Z,32.30
2022-08-10T14:01:52.350Z,32.40
2022-08-10T14:04:20.691Z,32.50
2022-08-10T14:06:55.331Z,32.60
2022-08-10T14:09:31.196Z,32.40
2022-08-10T14:12:01.851Z,32.10
2022-08-10T14:14:31.562Z,31.80
2022-08-10T14:17:01.186Z,31.90
2022-08-10T14:19:33.187Z,32.00
2022-08-10T14:22:05.333Z,32.10
2022-08-10T14:24:34.264Z,31.90
2022-08-10T14:27:08.626Z,32.10
2022-08-10T14:29:43.599Z,32.00
2022-08-10T14:32:13.863Z,32.10
2022-08-10T14:34:59.430Z,32.00
2022-08-10T14:37:38.062Z,31.80
2022-08-10T14:40:11.021Z,31.80
2022-08-10T14:42:48.343Z,31.70
2022-08-10T14:45:22.904Z,31.80
2022-08-10T14:47:59.652Z,32.00
2022-08-10T14:50:33.565Z,32.00
2022-08-10T14:53:09.302Z,31.90
2022-08-10T14:55:58.777Z,31.70
2022-08-10T14:58:38.463Z,31.70
2022-08-10T15:01:08.783Z,31.50
2022-08-10T15:03:58.655Z,31.60
2022-08-10T15:06:31.402Z,31.60
2022-08-10T15:09:12.187Z,31.50
2022-08-10T15:12:13.613Z,31.50
2022-08-10T15:14:45.608Z,31.50
2022-08-10T15:17:16.838Z,31.40
2022-08-10T15:20:02.637Z,31.40
2022-08-10T15:22:38.702Z,31.40
2022-08-10T15:25:19.138Z,31.30
2022-08-10T15:27:56.237Z,31.30
2022-08-10T15:30:32.123Z,31.30
2022-08-10T15:34:03.686Z,31.00
2022-08-10T15:36:37.698Z,30.90
2022-08-10T15:39:16.549Z,31.10
2022-08-10T15:42:00.652Z,31.10
2022-08-10T15:44:38.679Z,31.00
2022-08-10T15:47:12.006Z,31.10
2022-08-10T15:49:50.573Z,31.20
2022-08-10T15:52:39.969Z,31.10
2022-08-10T15:55:44.403Z,30.90
2022-08-10T15:58:07.959Z,31.00
2022-08-10T16:00:39.777Z,30.90
2022-08-10T16:03:17.088Z,30.80
2022-08-10T16:06:01.550Z,30.80
2022-08-10T16:08:50.355Z,30.80
2022-08-10T16:11:38.380Z,30.80
2022-08-10T16:14:17.939Z,30.80
2022-08-10T16:16:56.551Z,30.60
2022-08-10T16:19:27.590Z,30.60
2022-08-10T16:22:02.300Z,30.60
2022-08-10T16:24:37.800Z,30.30
2022-08-10T16:27:07.742Z,30.40
2022-08-10T16:29:55.682Z,30.50
2022-08-10T16:32:25.358Z,30.40
2022-08-10T16:34:56.477Z,30.20
2022-08-10T16:37:58.245Z,30.00
2022-08-10T16:40:22.129Z,30.00
2022-08-10T16:42:50.784Z,30.00
2022-08-10T16:45:22.692Z,30.00
2022-08-10T16:47:53.670Z,30.00
2022-08-10T16:50:28.963Z,29.90
2022-08-10T16:53:01.780Z,29.90
2022-08-10T16:55:48.596Z,29.90
2022-08-10T16:58:21.864Z,29.90
2022-08-10T17:00:51.139Z,29.90
2022-08-10T17:04:08.041Z,29.80
2022-08-10T17:06:43.968Z,29.80
2022-08-10T17:09:18.179Z,29.80
2022-08-10T17:11:48.815Z,29.80
2022-08-10T17:14:17.305Z,29.80
2022-08-10T17:16:51.924Z,29.70
2022-08-10T17:19:23.736Z,29.70
2022-08-10T17:21:58.176Z,29.70
2022-08-10T17:24:31.195Z,29.60
2022-08-10T17:28:04.006Z,29.40
2022-08-10T17:30:03.982Z,29.30
2022-08-10T17:32:44.598Z,29.20
2022-08-10T17:35:23.236Z,29.20
2022-08-10T17:37:59.079Z,29.10
2022-08-10T17:40:29.561Z,29.00
2022-08-10T17:42:58.884Z,29.00
2022-08-10T17:45:47.913Z,28.90
2022-08-10T17:48:19.641Z,28.80
2022-08-10T17:50:52.233Z,28.70
2022-08-10T17:53:25.492Z,28.70
2022-08-10T17:55:57.458Z,28.60
2022-08-10T17:58:27.748Z,28.60
2022-08-10T18:01:38.779Z,28.50
2022-08-10T18:03:53.133Z,28.40
2022-08-10T18:06:22.871Z,28.30
2022-08-10T18:08:57.786Z,28.20
2022-08-10T18:11:30.063Z,28.10
2022-08-10T18:14:08.111Z,28.10
2022-08-10T18:16:41.709Z,27.90
2022-08-10T18:19:14.549Z,27.80
2022-08-10T18:21:44.518Z,27.70
2022-08-10T18:24:18.583Z,27.70
2022-08-10T18:26:50.796Z,27.60
2022-08-10T18:29:21.708Z,27.50
2022-08-10T18:31:55.159Z,27.40
2022-08-10T18:34:25.590Z,27.30
2022-08-10T18:36:55.095Z,27.20
2022-08-10T18:39:28.313Z,27.10
2022-08-10T18:42:05.687Z,27.00
2022-08-10T18:44:38.321Z,26.90
2022-08-10T18:47:12.594Z,26.70
2022-08-10T18:49:54.954Z,26.60
2022-08-10T18:52:28.667Z,26.50
2022-08-10T18:55:14.442Z,26.30
2022-08-10T18:58:11.281Z,26.20
2022-08-10T19:00:57.544Z,26.20
2022-08-10T19:03:59.143Z,26.00
2022-08-10T19:06:50.210Z,25.90
2022-08-10T19:09:45.600Z,25.80
2022-08-10T19:12:39.481Z,25.70
2022-08-10T19:15:19.389Z,25.70
2022-08-10T19:18:03.051Z,25.60
2022-08-10T19:20:40.269Z,25.50
2022-08-10T19:23:18.705Z,25.50
2022-08-10T19:26:42.502Z,25.40
2022-08-10T19:28:55.195Z,25.40
2022-08-10T19:31:44.173Z,25.30
2022-08-10T19:34:29.782Z,25.20
2022-08-10T19:37:09.626Z,25.10
2022-08-10T19:39:57.770Z,24.90
2022-08-10T19:42:32.840Z,24.80
2022-08-10T19:45:56.134Z,24.70
2022-08-10T19:48:12.736Z,24.60
2022-08-10T19:50:44.932Z,24.50
2022-08-10T19:53:25.022Z,24.30
2022-08-10T19:56:24.396Z,24.10
2022-08-10T19:59:00.485Z,23.90
2022-08-10T20:01:55.071Z,23.70
2022-08-10T20:04:29.596Z,23.60
2022-08-10T20:07:10.205Z,23.60
2022-08-10T20:09:45.835Z,23.60
2022-08-10T20:12:19.685Z,23.60
2022-08-10T20:14:54.891Z,23.50
2022-08-10T20:17:45.046Z,23.50
2022-08-10T20:20:28.994Z,23.40
2022-08-10T20:23:08.752Z,23.30
2022-08-10T20:25:36.940Z,23.20
2022-08-10T20:28:14.341Z,23.20
2022-08-10T20:30:48.366Z,23.10
2022-08-10T20:33:23.695Z,23.20
2022-08-10T20:35:57.735Z,23.00
2022-08-10T20:38:33.587Z,22.90
2022-08-10T20:41:22.274Z,22.70
2022-08-10T20:44:03.590Z,22.70
2022-08-10T20:46:38.789Z,22.70
2022-08-10T20:49:28.415Z,22.80
2022-08-10T20:52:02.095Z,22.90
2022-08-10T20:54:33.840Z,22.90
2022-08-10T20:57:55.847Z,22.90
2022-08-10T21:00:23.402Z,22.80
2022-08-10T21:03:06.882Z,22.90
2022-08-10T21:05:52.771Z,22.80
2022-08-10T21:08:31.360Z,22.80
2022-08-10T21:11:06.589Z,23.10
2022-08-10T21:13:57.789Z,23.20
2022-08-10T21:17:01.188Z,23.30
2022-08-10T21:19:53.606Z,23.40
2022-08-10T21:22:29.420Z,23.40
2022-08-10T21:25:03.578Z,23.50
2022-08-10T21:28:04.079Z,23.50
2022-08-10T21:30:56.151Z,23.50
2022-08-10T21:33:34.508Z,23.40
2022-08-10T21:36:10.708Z,23.20
2022-08-10T21:38:51.991Z,22.90
2022-08-10T21:42:02.195Z,22.90
2022-08-10T21:45:08.962Z,22.90
2022-08-10T21:48:17.212Z,22.70
2022-08-10T21:51:10.260Z,22.40
2022-08-10T21:54:10.693Z,22.30
2022-08-10T21:57:02.691Z,22.20
2022-08-10T21:59:56.607Z,22.10
2022-08-10T22:02:50.415Z,22.00
2022-08-10T22:05:42.550Z,21.90
2022-08-10T22:08:30.507Z,21.80
2022-08-10T22:11:20.160Z,21.80
2022-08-10T22:18:00.266Z,21.80
2022-08-10T22:20:29.567Z,22.00
2022-08-10T22:23:38.832Z,21.90
2022-08-10T22:26:36.042Z,21.90
2022-08-10T22:29:46.065Z,22.00
2022-08-10T22:31:25.833Z,21.80
2022-08-10T22:32:43.661Z,22.10
2022-08-10T22:36:03.549Z,22.20
2022-08-10T22:39:05.551Z,22.20
2022-08-10T22:42:04.031Z,22.30
2022-08-10T22:44:57.116Z,22.30
2022-08-10T22:47:45.007Z,22.30
2022-08-10T22:50:12.971Z,22.30
2022-08-10T22:53:02.865Z,22.30
2022-08-10T22:55:55.619Z,22.20
2022-08-10T22:58:40.755Z,22.20
2022-08-10T23:01:14.032Z,22.10
2022-08-10T23:03:52.563Z,22.10
2022-08-10T23:06:27.520Z,22.10
2022-08-10T23:09:04.457Z,22.00
2022-08-10T23:11:39.159Z,21.80
2022-08-10T23:14:12.003Z,21.80
2022-08-10T23:17:02.911Z,21.80
2022-08-10T23:19:32.478Z,21.70
2022-08-10T23:22:07.380Z,21.70
2022-08-10T23:24:42.742Z,21.70
2022-08-10T23:27:38.372Z,21.60
2022-08-10T23:30:09.311Z,21.60
2022-08-10T23:32:45.165Z,21.60
2022-08-10T23:36:29.825Z,21.50
2022-08-10T23:38:05.486Z,21.50
2022-08-10T23:40:35.258Z,21.40
2022-08-10T23:43:05.045Z,21.30
2022-08-10T23:45:53.329Z,21.20
2022-08-10T23:48:25.165Z,21.10
2022-08-10T23:50:58.360Z,21.00
2022-08-10T23:53:31.164Z,20.90
2022-08-10T23:56:02.172Z,20.90
2022-08-10T23:58:37.116Z,20.80
